Time;durP1;ratioP1;P1;durP2;ratioP2;P2;SDS_P1;SDS_P2;PMS_P1;PMS_P2;Temp;Humidity;BMP_temperature;BMP_pressure;BME280_temperature;BME280_humidity;BME280_pressure;Samples;Min_cycle;Max_cycle;Signal;HPM_P1;HPM_P2
2023/06/24 00:00:52;;;;;;;12.30;11.10;;;;;;;23.03;66.42;99444.64;106499;1253;59759;-83
2023/06/24 00:03:19;;;;;;;13.40;12.10;;;;;;;23.01;66.11;99438.38;107578;1254;61471;-80
2023/06/24 00:05:49;;;;;;;12.50;11.30;;;;;;;23.01;65.53;99442.33;106862;1254;70875;-81
2023/06/24 00:08:19;;;;;;;12.30;11.00;;;;;;;23.03;65.66;99437.81;106974;1254;68896;-79
2023/06/24 00:10:46;;;;;;;12.30;11.10;;;;;;;23.05;65.24;99438.16;106132;1259;70532;-79
2023/06/24 00:13:16;;;;;;;12.80;11.60;;;;;;;23.10;65.31;99439.56;107221;1254;59644;-80
2023/06/24 00:15:43;;;;;;;12.50;11.30;;;;;;;23.14;65.02;99434.23;109037;1253;59548;-81
2023/06/24 00:18:11;;;;;;;14.70;12.90;;;;;;;23.19;65.09;99439.48;107348;1254;72347;-81
2023/06/24 00:20:38;;;;;;;10.80;9.80;;;;;;;23.20;64.86;99444.36;108373;1260;69270;-79
2023/06/24 00:23:06;;;;;;;12.40;11.20;;;;;;;23.21;63.30;99449.25;109014;1254;71183;-81
2023/06/24 00:25:33;;;;;;;12.90;11.60;;;;;;;23.26;62.97;99452.33;107484;1253;59771;-79
2023/06/24 00:28:01;;;;;;;13.20;12.00;;;;;;;23.27;63.29;99449.30;106824;1254;59682;-81
2023/06/24 00:30:28;;;;;;;13.20;11.90;;;;;;;23.26;63.78;99441.70;105866;1254;73148;-80
2023/06/24 00:32:56;;;;;;;13.00;11.90;;;;;;;23.26;64.64;99443.21;105828;1261;69016;-81
2023/06/24 00:35:24;;;;;;;14.90;13.40;;;;;;;23.26;64.73;99442.61;105652;1256;72214;-79
2023/06/24 00:37:57;;;;;;;15.00;13.50;;;;;;;23.28;64.57;99437.92;105908;1256;60487;-78
2023/06/24 00:40:26;;;;;;;14.70;13.30;;;;;;;23.29;64.92;99434.58;105900;1254;59748;-78
2023/06/24 00:42:54;;;;;;;14.10;12.90;;;;;;;23.31;65.01;99432.63;105861;1261;71749;-78
2023/06/24 00:45:22;;;;;;;14.80;13.60;;;;;;;23.29;65.43;99425.63;106024;1259;69013;-78
2023/06/24 00:47:50;;;;;;;15.30;13.90;;;;;;;23.28;65.13;99417.81;106133;1261;72185;-76
2023/06/24 00:50:17;;;;;;;15.80;14.20;;;;;;;23.25;65.07;99415.40;106354;1254;60334;-76
2023/06/24 00:52:45;;;;;;;14.70;13.30;;;;;;;23.21;64.91;99408.91;106982;1254;60408;-74
2023/06/24 00:55:15;;;;;;;14.50;13.20;;;;;;;23.19;64.88;99409.45;108671;1253;73898;-78
2023/06/24 00:57:50;;;;;;;14.80;13.30;;;;;;;23.15;65.52;99404.49;108237;1256;68955;-78
2023/06/24 01:00:19;;;;;;;14.90;13.50;;;;;;;23.13;65.64;99403.93;105917;1256;70787;-79
2023/06/24 01:02:48;;;;;;;14.00;12.70;;;;;;;23.12;66.10;99401.42;105915;1254;60069;-78
2023/06/24 01:05:15;;;;;;;14.70;13.20;;;;;;;23.12;66.19;99402.46;105982;1256;60061;-80
2023/06/24 01:07:43;;;;;;;15.60;13.80;;;;;;;23.13;66.26;99402.58;105874;1254;73618;-80
2023/06/24 01:10:14;;;;;;;15.60;14.10;;;;;;;23.11;66.28;99398.98;105676;1259;69269;-80
2023/06/24 01:12:44;;;;;;;16.00;14.40;;;;;;;23.08;66.47;99400.59;105904;1254;72719;-79
2023/06/24 01:15:11;;;;;;;15.90;13.30;;;;;;;23.03;66.34;99395.83;105996;1254;60365;-81
2023/06/24 01:17:47;;;;;;;15.40;14.00;;;;;;;22.97;66.70;99398.30;105795;1259;59782;-80
2023/06/24 01:20:15;;;;;;;16.30;14.60;;;;;;;22.91;66.69;99396.35;105826;1260;71852;-80
2023/06/24 01:23:03;;;;;;;16.30;14.80;;;;;;;22.84;67.07;99396.61;105887;1254;69035;-80
2023/06/24 01:25:52;;;;;;;16.70;15.10;;;;;;;22.75;67.18;99403.14;105667;1256;75356;-76
2023/06/24 01:28:31;;;;;;;14.50;13.10;;;;;;;22.65;67.97;99400.45;105934;1254;61624;-79
2023/06/24 01:31:18;;;;;;;17.40;15.70;;;;;;;22.63;68.33;99400.21;106220;1252;60026;-80
2023/06/24 01:33:49;;;;;;;17.70;16.00;;;;;;;22.55;68.74;99400.08;106391;1254;71869;-78
2023/06/24 01:36:19;;;;;;;17.10;15.50;;;;;;;22.47;69.24;99397.88;106396;1253;69137;-78
2023/06/24 01:38:58;;;;;;;17.60;14.00;;;;;;;22.40;69.79;99398.51;107921;1253;71522;-77
2023/06/24 01:41:26;;;;;;;17.10;15.50;;;;;;;22.33;70.39;99400.98;105644;1258;60249;-77
2023/06/24 01:43:54;;;;;;;19.20;16.40;;;;;;;22.29;70.79;99403.70;105806;1254;59826;-76
2023/06/24 01:46:22;;;;;;;17.90;16.20;;;;;;;22.26;71.58;99409.08;105816;1260;73078;-78
2023/06/24 01:48:51;;;;;;;16.20;14.80;;;;;;;22.29;71.85;99415.55;105789;1253;70736;-76
2023/06/24 01:51:20;;;;;;;16.80;15.00;;;;;;;22.29;72.07;99428.37;105762;1257;71508;-76
2023/06/24 01:53:50;;;;;;;19.30;14.80;;;;;;;22.24;72.63;99432.63;105743;1254;61010;-77
2023/06/24 01:56:19;;;;;;;17.00;15.20;;;;;;;22.19;73.12;99432.17;105939;1253;59994;-76
2023/06/24 01:58:46;;;;;;;16.50;14.90;;;;;;;22.12;73.60;99431.77;105629;1259;72460;-76
2023/06/24 02:01:14;;;;;;;16.50;14.70;;;;;;;22.13;74.63;99435.40;105775;1254;68990;-76
2023/06/24 02:03:43;;;;;;;15.80;14.40;;;;;;;22.19;74.27;99434.02;106361;1257;72628;-76
2023/06/24 02:06:11;;;;;;;19.40;17.00;;;;;;;22.17;74.27;99439.14;106501;1253;60095;-74
2023/06/24 02:08:39;;;;;;;17.70;16.10;;;;;;;22.14;74.47;99445.73;107347;1253;59477;-75
2023/06/24 02:11:07;;;;;;;16.90;15.40;;;;;;;22.11;74.75;99448.04;107828;1254;73032;-76
2023/06/24 02:13:35;;;;;;;18.30;16.40;;;;;;;22.09;74.95;99448.78;106871;1254;68975;-74
2023/06/24 02:16:03;;;;;;;16.30;14.50;;;;;;;22.13;75.15;99450.16;106071;1254;72610;-77
2023/06/24 02:18:33;;;;;;;16.20;14.50;;;;;;;22.17;75.20;99451.46;105816;1253;60543;-76
2023/06/24 02:21:00;;;;;;;16.00;14.40;;;;;;;22.15;75.44;99451.27;105885;1254;60629;-75
2023/06/24 02:23:28;;;;;;;16.20;14.60;;;;;;;22.10;75.88;99452.40;105618;1253;73812;-77
2023/06/24 02:25:55;;;;;;;18.90;15.30;;;;;;;22.06;76.13;99454.25;105624;1254;68878;-75
2023/06/24 02:28:23;;;;;;;17.20;15.40;;;;;;;22.06;76.63;99457.27;105762;1256;72942;-77
2023/06/24 02:30:50;;;;;;;19.20;16.70;;;;;;;22.13;76.63;99454.40;105689;1254;62444;-81
2023/06/24 02:33:19;;;;;;;17.60;15.80;;;;;;;22.17;76.64;99452.29;105744;1260;60444;-81
2023/06/24 02:35:46;;;;;;;16.30;14.40;;;;;;;22.16;76.60;99450.32;105850;1254;72641;-79
2023/06/24 02:38:14;;;;;;;19.00;15.50;;;;;;;22.14;76.75;99451.27;106888;1253;70112;-80
2023/06/24 02:40:44;;;;;;;16.00;14.30;;;;;;;22.12;77.09;99452.21;106826;1260;71083;-79
2023/06/24 02:43:11;;;;;;;16.70;14.90;;;;;;;22.19;77.01;99450.14;105964;1259;60567;-80
2023/06/24 02:45:39;;;;;;;16.70;14.90;;;;;;;22.25;76.98;99448.02;106168;1254;60441;-80
2023/06/24 02:48:08;;;;;;;16.70;14.20;;;;;;;22.26;77.13;99451.94;105867;1260;74310;-80
2023/06/24 02:50:37;;;;;;;16.70;15.00;;;;;;;22.26;76.96;99457.72;105904;1254;68668;-79
2023/06/24 02:53:04;;;;;;;17.60;14.80;;;;;;;22.27;77.13;99459.89;107055;1254;71435;-75
2023/06/24 02:55:33;;;;;;;19.40;14.50;;;;;;;22.29;77.09;99458.14;107692;1254;60553;-77
2023/06/24 02:58:07;;;;;;;16.80;15.00;;;;;;;22.39;77.05;99462.86;105974;1254;60442;-75
2023/06/24 03:00:41;;;;;;;17.80;15.40;;;;;;;22.42;77.05;99461.86;105872;1259;74431;-77
2023/06/24 03:03:08;;;;;;;20.70;16.50;;;;;;;22.40;76.96;99460.48;105972;1253;70005;-80
2023/06/24 03:05:45;;;;;;;18.70;15.60;;;;;;;22.38;77.08;99463.86;106108;1259;72465;-78
2023/06/24 03:08:12;;;;;;;16.80;14.90;;;;;;;22.39;77.04;99462.97;107056;1257;60437;-75
2023/06/24 03:10:41;;;;;;;15.10;13.00;;;;;;;22.49;76.95;99467.19;108107;1253;60022;-80
2023/06/24 03:13:12;;;;;;;19.70;15.40;;;;;;;22.57;76.93;99471.94;107561;1256;73987;-79
2023/06/24 03:15:43;;;;;;;15.70;14.20;;;;;;;22.58;76.80;99475.76;108418;1254;68725;-77
2023/06/24 03:18:11;;;;;;;16.10;13.90;;;;;;;22.59;76.87;99481.17;107220;1253;73041;-78
2023/06/24 03:20:39;;;;;;;18.10;14.90;;;;;;;22.59;76.73;99476.83;105969;1257;60401;-76
2023/06/24 03:23:10;;;;;;;18.10;15.70;;;;;;;22.61;77.06;99478.20;105899;1255;60410;-79
2023/06/24 03:25:38;;;;;;;14.90;13.40;;;;;;;22.67;77.02;99474.06;105807;1259;76829;-82
2023/06/24 03:28:07;;;;;;;15.40;13.90;;;;;;;22.73;77.05;99470.05;106260;1254;69993;-82
2023/06/24 03:30:39;;;;;;;16.30;14.60;;;;;;;22.71;76.61;99465.59;106160;1254;72766;-80
2023/06/24 03:33:07;;;;;;;15.90;14.00;;;;;;;22.69;76.33;99464.05;106647;1253;60642;-76
2023/06/24 03:35:34;;;;;;;16.20;14.50;;;;;;;22.67;76.47;99468.04;105964;1256;60316;-80
2023/06/24 03:38:04;;;;;;;14.60;13.00;;;;;;;22.66;76.76;99481.40;105847;1256;73496;-78
2023/06/24 03:40:32;;;;;;;18.70;15.50;;;;;;;22.72;76.81;99479.25;105768;1259;69202;-78
2023/06/24 03:43:00;;;;;;;15.80;14.30;;;;;;;22.73;76.90;99482.23;105674;1257;71770;-77
2023/06/24 03:45:27;;;;;;;15.40;13.90;;;;;;;22.68;77.01;99480.56;105743;1260;60300;-78
2023/06/24 03:47:55;;;;;;;17.50;13.80;;;;;;;22.64;77.15;99476.84;105762;1259;60514;-77
2023/06/24 03:50:22;;;;;;;18.20;14.50;;;;;;;22.62;77.41;99472.80;105703;1254;74057;-76
2023/06/24 03:52:50;;;;;;;16.50;13.90;;;;;;;22.63;77.35;99464.10;105848;1254;69405;-75
2023/06/24 03:55:17;;;;;;;20.00;14.50;;;;;;;22.75;77.42;99464.92;105700;1257;72688;-77
2023/06/24 03:57:45;;;;;;;16.40;13.00;;;;;;;22.84;77.00;99459.60;105770;1253;60602;-78
2023/06/24 04:00:16;;;;;;;15.40;13.70;;;;;;;22.85;76.67;99456.79;105521;1254;60451;-78
2023/06/24 04:02:45;;;;;;;18.90;15.70;;;;;;;22.83;76.74;99461.97;105670;1254;72557;-78
2023/06/24 04:05:15;;;;;;;14.70;13.20;;;;;;;22.82;76.74;99466.02;105677;1259;69614;-79
2023/06/24 04:07:46;;;;;;;14.40;12.40;;;;;;;22.80;76.41;99468.00;105579;1253;71384;-77
2023/06/24 04:10:17;;;;;;;15.00;11.10;;;;;;;22.79;76.18;99470.49;106330;1253;60431;-75
2023/06/24 04:12:45;;;;;;;15.30;11.90;;;;;;;22.85;76.22;99475.10;106921;1254;60306;-76
2023/06/24 04:15:13;;;;;;;13.80;11.70;;;;;;;22.88;76.00;99477.89;105906;1260;72919;-77
2023/06/24 04:17:41;;;;;;;16.70;13.40;;;;;;;22.86;75.94;99479.89;105973;1254;69090;-77
2023/06/24 04:20:10;;;;;;;15.80;13.10;;;;;;;22.83;76.20;99477.26;105686;1254;73842;-76
2023/06/24 04:22:39;;;;;;;15.50;12.60;;;;;;;22.85;76.53;99476.68;106738;1253;60511;-75
2023/06/24 04:25:07;;;;;;;13.40;12.00;;;;;;;22.90;76.25;99474.13;107203;1254;60526;-78
2023/06/24 04:27:37;;;;;;;12.90;11.50;;;;;;;23.01;75.87;99466.70;107732;1258;74098;-75
2023/06/24 04:30:07;;;;;;;15.40;12.00;;;;;;;23.08;74.96;99465.67;106063;1259;68982;-78
2023/06/24 04:32:34;;;;;;;13.00;11.70;;;;;;;23.07;75.05;99470.25;105847;1257;73772;-80
2023/06/24 04:35:04;;;;;;;13.40;11.90;;;;;;;23.10;74.79;99475.65;105906;1253;60523;-79
2023/06/24 04:37:33;;;;;;;14.90;11.30;;;;;;;23.17;74.87;99477.88;105799;1253;60448;-76
2023/06/24 04:40:01;;;;;;;16.10;11.70;;;;;;;23.30;74.52;99467.58;105639;1254;73043;-76
2023/06/24 04:42:28;;;;;;;16.30;11.40;;;;;;;23.49;74.19;99462.46;105738;1254;70170;-76
2023/06/24 04:44:56;;;;;;;12.70;10.80;;;;;;;23.60;73.66;99458.74;105781;1254;71363;-77
2023/06/24 04:47:24;;;;;;;15.40;10.50;;;;;;;23.63;73.66;99457.04;105882;1254;61012;-77
2023/06/24 04:49:51;;;;;;;17.10;10.80;;;;;;;23.62;73.12;99455.40;105805;1256;60362;-77
2023/06/24 04:52:19;;;;;;;12.60;10.90;;;;;;;23.60;73.08;99458.26;106341;1253;72576;-78
2023/06/24 04:54:47;;;;;;;13.80;10.60;;;;;;;23.59;72.76;99458.67;106322;1254;70618;-79
2023/06/24 04:57:28;;;;;;;14.00;10.70;;;;;;;23.55;72.97;99460.23;105901;1254;71584;-78
2023/06/24 04:59:56;;;;;;;15.40;10.40;;;;;;;23.64;73.61;99459.86;105715;1254;60845;-77
2023/06/24 05:02:24;;;;;;;11.70;10.30;;;;;;;23.78;73.56;99459.47;105844;1254;60537;-79
2023/06/24 05:04:51;;;;;;;14.70;11.00;;;;;;;23.88;74.44;99458.52;105820;1253;72670;-79
2023/06/24 05:07:19;;;;;;;13.00;11.40;;;;;;;24.00;74.51;99453.80;105650;1253;68882;-83
2023/06/24 05:09:47;;;;;;;15.60;11.80;;;;;;;24.13;74.57;99454.90;105778;1254;72760;-77
2023/06/24 05:12:14;;;;;;;12.90;10.60;;;;;;;24.24;73.25;99456.36;105848;1254;60626;-81
2023/06/24 05:14:43;;;;;;;12.80;10.30;;;;;;;24.29;72.86;99453.50;105721;1259;60421;-80
2023/06/24 05:17:11;;;;;;;11.90;10.40;;;;;;;24.34;72.77;99451.51;105889;1258;72477;-77
2023/06/24 05:19:38;;;;;;;11.70;9.20;;;;;;;24.46;72.90;99456.34;105839;1259;70192;-80
2023/06/24 05:22:06;;;;;;;9.60;8.10;;;;;;;24.58;72.08;99457.09;106072;1257;73096;-82
2023/06/24 05:24:34;;;;;;;12.00;10.40;;;;;;;24.61;70.98;99463.79;106630;1260;61139;-80
2023/06/24 05:27:06;;;;;;;16.60;10.40;;;;;;;24.61;69.79;99464.60;106067;1254;60939;-79
2023/06/24 05:29:34;;;;;;;11.20;8.80;;;;;;;24.60;69.88;99460.04;108128;1258;73913;-78
2023/06/24 05:32:03;;;;;;;11.80;9.60;;;;;;;24.55;69.54;99461.92;108563;1254;71123;-79
2023/06/24 05:34:31;;;;;;;17.40;9.80;;;;;;;24.47;69.68;99465.08;108652;1254;71152;-78
2023/06/24 05:36:58;;;;;;;13.20;10.20;;;;;;;24.39;69.66;99466.78;108587;1254;60465;-79
2023/06/24 05:39:26;;;;;;;12.90;10.50;;;;;;;24.34;70.44;99466.94;108219;1259;59198;-83
2023/06/24 05:41:53;;;;;;;13.70;9.90;;;;;;;24.31;70.39;99467.95;106414;1254;73888;-78
2023/06/24 05:44:22;;;;;;;11.10;9.50;;;;;;;24.27;70.58;99469.19;106146;1254;71043;-81
2023/06/24 05:46:50;;;;;;;11.40;9.60;;;;;;;24.25;71.11;99467.11;106202;1254;73075;-82
2023/06/24 05:49:18;;;;;;;13.70;9.60;;;;;;;24.34;71.44;99465.95;105970;1254;61759;-79
2023/06/24 05:51:45;;;;;;;14.60;9.80;;;;;;;24.43;71.69;99472.00;106545;1253;60055;-84
2023/06/24 05:54:13;;;;;;;12.20;9.30;;;;;;;24.48;72.22;99473.34;105722;1257;74025;-82
2023/06/24 05:56:40;;;;;;;11.30;9.50;;;;;;;24.51;71.65;99478.96;106020;1253;70824;-81
2023/06/24 05:59:09;;;;;;;13.10;9.20;;;;;;;24.48;70.79;99474.36;106212;1253;72471;-83
2023/06/24 06:01:38;;;;;;;11.00;9.70;;;;;;;24.38;71.07;99472.48;107190;1253;60366;-76
2023/06/24 06:04:05;;;;;;;13.10;8.90;;;;;;;24.31;71.61;99471.44;107141;1254;59482;-77
2023/06/24 06:06:33;;;;;;;14.50;9.80;;;;;;;24.30;71.53;99477.39;107243;1254;73039;-79
2023/06/24 06:09:00;;;;;;;11.30;8.60;;;;;;;24.24;71.40;99480.52;107108;1254;68603;-77
2023/06/24 06:11:28;;;;;;;13.60;8.80;;;;;;;24.23;71.54;99479.05;106353;1254;71351;-76
2023/06/24 06:13:56;;;;;;;13.30;8.80;;;;;;;24.20;71.51;99472.09;106872;1253;60391;-77
2023/06/24 06:16:26;;;;;;;11.50;9.40;;;;;;;24.14;71.61;99467.01;108774;1254;59152;-75
2023/06/24 06:18:53;;;;;;;11.00;8.10;;;;;;;24.10;71.82;99467.21;108873;1253;72391;-76
2023/06/24 06:21:21;;;;;;;11.30;8.60;;;;;;;24.10;71.92;99460.63;107819;1253;69532;-77
2023/06/24 06:23:48;;;;;;;13.70;8.50;;;;;;;24.12;71.89;99462.65;106085;1254;73685;-76
2023/06/24 06:26:16;;;;;;;12.30;8.10;;;;;;;24.13;71.56;99458.05;106594;1253;62049;-79
2023/06/24 06:28:44;;;;;;;9.70;7.30;;;;;;;24.13;71.54;99457.07;106130;1253;60649;-78
2023/06/24 06:31:11;;;;;;;14.20;7.50;;;;;;;24.21;71.21;99456.62;105858;1254;73912;-80
2023/06/24 06:33:39;;;;;;;10.20;6.90;;;;;;;24.23;71.35;99458.69;105884;1254;70309;-80
2023/06/24 06:36:06;;;;;;;11.60;7.40;;;;;;;24.26;71.40;99459.84;105738;1254;72430;-79
2023/06/24 06:38:34;;;;;;;12.00;7.60;;;;;;;24.28;71.07;99462.45;106077;1259;60422;-80
2023/06/24 06:41:01;;;;;;;8.50;7.00;;;;;;;24.32;71.41;99460.91;107109;1254;60505;-88
2023/06/24 06:43:29;;;;;;;11.30;7.30;;;;;;;24.38;70.88;99462.91;108436;1253;74034;-92
2023/06/24 06:45:57;;;;;;;9.10;7.20;;;;;;;24.37;70.72;99464.28;109158;1253;69164;-91
2023/06/24 06:48:25;;;;;;;13.20;6.90;;;;;;;24.34;70.93;99463.13;109192;1253;73627;-91
2023/06/24 06:50:53;;;;;;;8.90;6.50;;;;;;;24.35;71.36;99458.89;109454;1254;62511;-92
2023/06/24 06:53:21;;;;;;;9.30;6.20;;;;;;;24.46;71.16;99458.01;109494;1253;58734;-91
2023/06/24 06:59:32;;;;;;;11.10;6.80;;;;;;;24.49;70.68;99456.98;109273;1252;69595;-89
2023/06/24 07:02:00;;;;;;;9.90;6.20;;;;;;;24.45;70.66;99449.27;108038;1254;71625;-91
2023/06/24 07:04:27;;;;;;;12.10;6.60;;;;;;;24.44;70.51;99440.15;106794;1254;60382;-88
2023/06/24 07:06:55;;;;;;;10.20;7.00;;;;;;;24.39;70.64;99435.84;106103;1259;60444;-86
2023/06/24 07:09:23;;;;;;;9.90;6.40;;;;;;;24.39;71.19;99433.23;107193;1259;74085;-90
2023/06/24 07:11:50;;;;;;;10.90;6.20;;;;;;;24.44;70.54;99436.83;107400;1259;69788;-90
2023/06/24 07:14:18;;;;;;;11.50;6.40;;;;;;;24.47;70.46;99438.25;107623;1256;70990;-90
2023/06/24 07:16:46;;;;;;;13.50;7.30;;;;;;;24.54;70.35;99446.05;107661;1260;60373;-89
2023/06/24 07:19:14;;;;;;;14.10;6.60;;;;;;;24.59;70.20;99449.06;107410;1254;60040;-91
2023/06/24 07:21:41;;;;;;;9.70;6.20;;;;;;;24.73;69.94;99453.94;107518;1253;72029;-91
2023/06/24 07:24:09;;;;;;;12.90;7.30;;;;;;;24.93;69.53;99466.79;107596;1252;68767;-91
2023/06/24 07:26:36;;;;;;;13.80;7.20;;;;;;;25.04;69.51;99471.92;107475;1256;72721;-91
2023/06/24 07:29:08;;;;;;;12.40;6.30;;;;;;;25.14;69.09;99472.63;107569;1256;60478;-91
2023/06/24 07:31:37;;;;;;;7.60;6.10;;;;;;;25.25;68.73;99476.41;109195;1254;58789;-90
2023/06/24 07:34:05;;;;;;;12.40;6.40;;;;;;;25.39;68.33;99482.06;108560;1254;72739;-88
2023/06/24 07:36:32;;;;;;;9.90;6.60;;;;;;;25.49;67.86;99485.65;109306;1253;68711;-90
2023/06/24 07:39:00;;;;;;;9.10;6.40;;;;;;;25.60;67.66;99490.05;108626;1254;71190;-87
2023/06/24 07:41:28;;;;;;;8.10;6.50;;;;;;;25.72;67.09;99487.91;109333;1253;58798;-89
2023/06/24 07:43:55;;;;;;;9.80;6.10;;;;;;;25.77;67.06;99492.85;109500;1253;59113;-91
2023/06/24 07:46:23;;;;;;;10.00;5.80;;;;;;;25.76;66.94;99493.73;109541;1253;73012;-88
2023/06/24 07:48:50;;;;;;;14.80;7.10;;;;;;;25.75;67.14;99493.41;109431;1252;71014;-88
2023/06/24 07:51:18;;;;;;;9.90;6.60;;;;;;;25.76;67.09;99491.02;109324;1252;71600;-87
2023/06/24 07:53:45;;;;;;;8.90;6.00;;;;;;;25.77;67.06;99487.73;108892;1253;58828;-89
2023/06/24 07:56:13;;;;;;;11.00;6.80;;;;;;;25.78;67.14;99484.14;108519;1253;59032;-89
2023/06/24 07:58:40;;;;;;;11.20;6.50;;;;;;;25.78;67.21;99489.31;109332;1253;72679;-90
2023/06/24 08:01:08;;;;;;;9.00;5.70;;;;;;;25.78;67.23;99492.32;109504;1252;69198;-87
2023/06/24 08:03:37;;;;;;;10.20;6.00;;;;;;;25.83;67.19;99494.86;109463;1253;71330;-88
2023/06/24 08:06:04;;;;;;;12.00;6.90;;;;;;;25.88;67.02;99498.55;109253;1252;59232;-90
2023/06/24 08:08:32;;;;;;;8.90;6.40;;;;;;;25.90;67.21;99491.75;109205;1253;59402;-86
2023/06/24 08:10:59;;;;;;;11.90;6.30;;;;;;;25.97;67.20;99492.52;109305;1252;74703;-88
2023/06/24 08:13:27;;;;;;;9.90;6.50;;;;;;;26.02;66.78;99497.67;107892;1262;69081;-86
2023/06/24 08:15:54;;;;;;;9.10;5.50;;;;;;;26.03;66.83;99502.84;108297;1253;72778;-87
2023/06/24 08:18:22;;;;;;;9.40;6.60;;;;;;;26.09;66.54;99506.36;109287;1253;59412;-86
2023/06/24 08:20:49;;;;;;;10.90;6.80;;;;;;;26.15;66.00;99507.66;108029;1253;59233;-83
2023/06/24 08:23:17;;;;;;;9.80;6.90;;;;;;;26.14;65.95;99505.48;107854;1253;72677;-85
2023/06/24 08:25:44;;;;;;;12.80;6.90;;;;;;;26.09;66.18;99512.30;107862;1254;68757;-89
2023/06/24 08:28:12;;;;;;;9.60;7.00;;;;;;;26.06;66.37;99510.41;108322;1254;71284;-87
2023/06/24 08:30:39;;;;;;;9.10;6.70;;;;;;;26.07;66.56;99509.15;107089;1253;60499;-88
2023/06/24 08:33:07;;;;;;;10.60;6.20;;;;;;;26.02;66.43;99511.83;106419;1254;61102;-87
2023/06/24 08:35:35;;;;;;;8.80;6.40;;;;;;;25.92;66.68;99512.66;106606;1253;73861;-88
2023/06/24 08:38:03;;;;;;;7.40;6.40;;;;;;;25.80;67.17;99515.98;107688;1254;69339;-84
2023/06/24 08:40:30;;;;;;;8.80;6.50;;;;;;;25.68;67.87;99517.08;106833;1255;71429;-84
2023/06/24 08:42:58;;;;;;;11.80;6.10;;;;;;;25.58;68.19;99518.66;109147;1253;58756;-85
2023/06/24 08:45:25;;;;;;;11.30;7.20;;;;;;;25.49;68.47;99519.86;109359;1253;59456;-85
2023/06/24 08:47:53;;;;;;;9.40;6.30;;;;;;;25.40;68.64;99515.19;108197;1253;73075;-88
2023/06/24 08:50:21;;;;;;;9.30;6.40;;;;;;;25.36;68.87;99514.14;108297;1253;70482;-87
2023/06/24 08:52:51;;;;;;;9.30;6.60;;;;;;;25.35;69.08;99508.06;108828;1255;71641;-87
2023/06/24 08:55:20;;;;;;;10.50;6.30;;;;;;;25.43;68.91;99513.77;108037;1255;61516;-85
2023/06/24 08:57:54;;;;;;;9.50;7.10;;;;;;;25.46;68.64;99518.84;109057;1253;58970;-87
2023/06/24 09:00:22;;;;;;;12.40;6.50;;;;;;;25.44;68.50;99516.17;108195;1254;72585;-87
2023/06/24 09:02:49;;;;;;;11.20;6.50;;;;;;;25.40;68.64;99511.05;108453;1253;71340;-85
2023/06/24 09:05:17;;;;;;;12.50;7.60;;;;;;;25.37;68.77;99506.86;107736;1256;73189;-87
2023/06/24 09:07:45;;;;;;;12.40;6.50;;;;;;;25.38;68.97;99509.64;107462;1254;60532;-86
2023/06/24 09:10:29;;;;;;;11.40;6.50;;;;;;;25.34;69.09;99513.66;108122;1254;60435;-85
2023/06/24 09:12:57;;;;;;;8.80;7.00;;;;;;;25.25;69.50;99511.42;108957;1254;72860;-86
2023/06/24 09:15:25;;;;;;;11.50;7.50;;;;;;;25.17;69.93;99512.16;109024;1260;69059;-85
2023/06/24 09:17:52;;;;;;;10.40;6.90;;;;;;;25.10;70.28;99515.13;108320;1260;71564;-86
2023/06/24 09:20:22;;;;;;;10.90;6.90;;;;;;;25.04;70.18;99522.17;108423;1254;60390;-90
2023/06/24 09:22:50;;;;;;;13.60;8.00;;;;;;;24.98;70.02;99517.50;109073;1254;61393;-90
2023/06/24 09:25:19;;;;;;;13.70;7.40;;;;;;;24.96;69.86;99521.41;108260;1260;72847;-89
2023/06/24 09:27:52;;;;;;;11.50;6.90;;;;;;;25.02;69.26;99521.41;107156;1262;69053;-89
2023/06/24 09:30:21;;;;;;;9.70;7.00;;;;;;;25.08;69.27;99525.73;107814;1256;74266;-88
2023/06/24 09:32:49;;;;;;;9.70;6.70;;;;;;;25.14;69.33;99524.64;108100;1261;60327;-86
2023/06/24 09:35:22;;;;;;;9.50;6.90;;;;;;;25.21;69.35;99528.48;108390;1254;59295;-84
2023/06/24 09:37:51;;;;;;;;;;;;;;;25.34;69.05;99528.29;107698;1255;75080;-87
2023/06/24 09:40:22;;;;;;;12.10;7.00;;;;;;;25.40;68.74;99526.34;108887;1254;70761;-89
2023/06/24 09:42:54;;;;;;;9.50;6.20;;;;;;;25.42;68.83;99526.92;109127;1255;71451;-88
2023/06/24 09:45:29;;;;;;;10.50;6.80;;;;;;;25.45;68.97;99526.16;109133;1254;59068;-90
2023/06/24 09:48:00;;;;;;;9.90;6.60;;;;;;;25.40;69.01;99521.77;108996;1256;58862;-86
2023/06/24 09:50:28;;;;;;;11.90;7.00;;;;;;;25.35;69.49;99516.71;108641;1257;74533;-88
2023/06/24 09:52:56;;;;;;;12.00;7.20;;;;;;;25.30;69.46;99513.23;108341;1255;72763;-86
2023/06/24 09:55:25;;;;;;;11.60;7.30;;;;;;;25.28;69.34;99508.50;108386;1256;71489;-85
2023/06/24 09:57:53;;;;;;;12.30;7.20;;;;;;;25.25;70.23;99508.16;107924;1256;60310;-86
2023/06/24 10:00:22;;;;;;;14.20;7.50;;;;;;;25.24;70.47;99509.13;108286;1257;58742;-86
2023/06/24 10:02:52;;;;;;;11.10;7.30;;;;;;;25.25;71.14;99509.36;108276;1259;72588;-84
2023/06/24 10:05:20;;;;;;;9.80;6.30;;;;;;;25.34;70.82;99507.61;107288;1254;68776;-81
2023/06/24 10:07:48;;;;;;;11.60;7.00;;;;;;;25.50;69.31;99502.57;108346;1256;71111;-85
2023/06/24 10:10:16;;;;;;;10.20;6.90;;;;;;;25.69;68.30;99499.45;107817;1259;60334;-85
2023/06/24 10:12:44;;;;;;;13.40;6.90;;;;;;;25.94;69.09;99491.15;108054;1257;61011;-86
2023/06/24 10:15:12;;;;;;;11.50;6.70;;;;;;;26.30;67.90;99485.23;108172;1255;74901;-81
2023/06/24 10:17:40;;;;;;;8.70;6.80;;;;;;;26.68;66.34;99485.50;108082;1256;70882;-81
2023/06/24 10:20:09;;;;;;;10.30;7.00;;;;;;;26.96;64.98;99488.62;107804;1256;414943;-83
2023/06/24 10:25:08;;;;;;;9.60;6.90;;;;;;;27.24;63.86;99482.91;105894;1289;599894;-84
2023/06/24 10:27:39;;;;;;;10.00;7.00;;;;;;;27.35;63.11;99484.05;108215;1267;58820;-83
2023/06/24 10:30:19;;;;;;;11.80;7.60;;;;;;;27.56;63.20;99483.75;108174;1267;59254;-83
2023/06/24 10:32:55;;;;;;;10.00;7.50;;;;;;;27.84;62.25;99484.85;108850;1257;72539;-84
2023/06/24 10:35:25;;;;;;;12.00;7.80;;;;;;;28.10;61.16;99487.59;109229;1257;70586;-89
2023/06/24 10:37:57;;;;;;;11.80;7.60;;;;;;;28.28;60.86;99484.33;109011;1254;165306;-88
2023/06/24 10:40:40;;;;;;;9.60;7.70;;;;;;;28.37;60.91;99484.86;109075;1257;58873;-88
2023/06/24 10:43:23;;;;;;;9.70;6.90;;;;;;;28.42;60.29;99485.35;108993;1256;61239;-87
2023/06/24 10:45:52;;;;;;;10.50;7.20;;;;;;;28.36;60.10;99486.46;108933;1256;74046;-88
2023/06/24 10:48:21;;;;;;;12.20;7.30;;;;;;;28.43;60.67;99478.61;109253;1257;69091;-82
2023/06/24 10:50:51;;;;;;;12.50;7.60;;;;;;;28.73;60.25;99475.23;108985;1257;71347;-87
2023/06/24 10:53:21;;;;;;;10.10;8.30;;;;;;;29.16;58.59;99469.40;108787;1261;59310;-87
2023/06/24 10:55:49;;;;;;;9.00;6.30;;;;;;;29.57;58.18;99475.79;108992;1257;59626;-86
2023/06/24 10:58:16;;;;;;;8.60;6.70;;;;;;;30.02;56.98;99472.06;109158;1257;71549;-88
2023/06/24 11:00:45;;;;;;;9.20;7.10;;;;;;;30.43;56.28;99464.84;109021;1257;69972;-86
2023/06/24 11:03:15;;;;;;;10.00;8.10;;;;;;;30.90;55.54;99463.38;108169;1257;72570;-88
2023/06/24 11:05:45;;;;;;;12.20;7.30;;;;;;;31.37;54.59;99459.19;106433;1255;59705;-83
2023/06/24 11:08:12;;;;;;;11.90;8.30;;;;;;;31.84;53.67;99452.36;105907;1258;60022;-82
2023/06/24 11:10:47;;;;;;;9.00;7.70;;;;;;;32.27;52.45;99456.78;105757;1261;73133;-80
2023/06/24 11:13:14;;;;;;;10.80;7.20;;;;;;;32.59;51.55;99455.10;105633;1261;68718;-81
2023/06/24 11:15:42;;;;;;;10.80;7.60;;;;;;;32.96;50.55;99453.88;105761;1260;71416;-81
2023/06/24 11:18:10;;;;;;;9.30;7.00;;;;;;;33.21;49.31;99451.31;105780;1258;60184;-83
2023/06/24 11:20:39;;;;;;;9.00;7.10;;;;;;;33.30;49.05;99456.24;105855;1257;60100;-79
2023/06/24 11:23:10;;;;;;;11.40;7.10;;;;;;;33.37;49.15;99456.23;105704;1264;73204;-81
2023/06/24 11:25:42;;;;;;;10.60;7.10;;;;;;;33.53;48.74;99451.42;105791;1262;69256;-81
2023/06/24 11:28:31;;;;;;;10.10;7.50;;;;;;;33.75;48.55;99452.02;105899;1263;71648;-83